sensor_id;sensor_type;location;lat;lon;timestamp;P1;durP1;ratioP1;P2;durP2;ratioP2
36725;SDS011;44936;52.086;5.150;2023-02-15T00:00:01;16.80;;;4.97;;
36725;SDS011;44936;52.086;5.150;2023-02-15T00:02:28;14.55;;;5.60;;
36725;SDS011;44936;52.086;5.150;2023-02-15T00:04:54;15.35;;;5.60;;
36725;SDS011;44936;52.086;5.150;2023-02-15T00:07:21;18.13;;;5.47;;
36725;SDS011;44936;52.086;5.150;2023-02-15T00:09:46;21.75;;;5.50;;
36725;SDS011;44936;52.086;5.150;2023-02-15T00:12:11;15.52;;;5.75;;
36725;SDS011;44936;52.086;5.150;2023-02-15T00:14:37;15.25;;;4.75;;
36725;SDS011;44936;52.086;5.150;2023-02-15T00:17:02;15.60;;;4.90;;
36725;SDS011;44936;52.086;5.150;2023-02-15T00:19:28;21.92;;;6.10;;
36725;SDS011;44936;52.086;5.150;2023-02-15T00:21:53;15.25;;;5.05;;
36725;SDS011;44936;52.086;5.150;2023-02-15T00:24:18;17.08;;;6.00;;
36725;SDS011;44936;52.086;5.150;2023-02-15T00:26:44;12.43;;;4.78;;
36725;SDS011;44936;52.086;5.150;2023-02-15T00:29:12;13.40;;;5.10;;
36725;SDS011;44936;52.086;5.150;2023-02-15T00:31:38;14.50;;;5.47;;
36725;SDS011;44936;52.086;5.150;2023-02-15T00:34:07;16.23;;;5.78;;
36725;SDS011;44936;52.086;5.150;2023-02-15T00:36:36;21.52;;;5.32;;
36725;SDS011;44936;52.086;5.150;2023-02-15T00:39:02;14.85;;;5.05;;
36725;SDS011;44936;52.086;5.150;2023-02-15T00:41:29;11.95;;;4.45;;
36725;SDS011;44936;52.086;5.150;2023-02-15T00:43:55;15.93;;;6.28;;
36725;SDS011;44936;52.086;5.150;2023-02-15T00:46:20;18.55;;;6.05;;
36725;SDS011;44936;52.086;5.150;2023-02-15T00:48:46;12.38;;;4.72;;
36725;SDS011;44936;52.086;5.150;2023-02-15T00:51:11;15.95;;;5.25;;
36725;SDS011;44936;52.086;5.150;2023-02-15T00:53:36;18.20;;;6.20;;
36725;SDS011;44936;52.086;5.150;2023-02-15T00:56:01;18.05;;;5.80;;
36725;SDS011;44936;52.086;5.150;2023-02-15T00:58:27;19.08;;;6.05;;
36725;SDS011;44936;52.086;5.150;2023-02-15T01:00:52;19.02;;;5.40;;
36725;SDS011;44936;52.086;5.150;2023-02-15T01:03:18;16.67;;;5.50;;
36725;SDS011;44936;52.086;5.150;2023-02-15T01:05:46;14.55;;;5.30;;
36725;SDS011;44936;52.086;5.150;2023-02-15T01:08:12;16.73;;;5.90;;
36725;SDS011;44936;52.086;5.150;2023-02-15T01:10:37;13.90;;;4.70;;
36725;SDS011;44936;52.086;5.150;2023-02-15T01:13:04;19.92;;;5.68;;
36725;SDS011;44936;52.086;5.150;2023-02-15T01:15:29;18.52;;;6.07;;
36725;SDS011;44936;52.086;5.150;2023-02-15T01:17:55;19.13;;;5.63;;
36725;SDS011;44936;52.086;5.150;2023-02-15T01:20:21;16.38;;;5.28;;
36725;SDS011;44936;52.086;5.150;2023-02-15T01:22:48;13.68;;;5.22;;
36725;SDS011;44936;52.086;5.150;2023-02-15T01:25:18;16.50;;;5.13;;
36725;SDS011;44936;52.086;5.150;2023-02-15T01:27:45;14.95;;;5.30;;
36725;SDS011;44936;52.086;5.150;2023-02-15T01:30:11;15.13;;;5.57;;
36725;SDS011;44936;52.086;5.150;2023-02-15T01:32:38;14.32;;;5.40;;
36725;SDS011;44936;52.086;5.150;2023-02-15T01:35:04;14.35;;;5.47;;
36725;SDS011;44936;52.086;5.150;2023-02-15T01:37:30;14.15;;;5.00;;
36725;SDS011;44936;52.086;5.150;2023-02-15T01:39:56;15.40;;;5.57;;
36725;SDS011;44936;52.086;5.150;2023-02-15T01:42:23;15.32;;;5.53;;
36725;SDS011;44936;52.086;5.150;2023-02-15T01:47:39;14.77;;;4.75;;
36725;SDS011;44936;52.086;5.150;2023-02-15T01:52:34;15.50;;;4.75;;
36725;SDS011;44936;52.086;5.150;2023-02-15T01:55:02;15.55;;;5.78;;
36725;SDS011;44936;52.086;5.150;2023-02-15T01:57:28;17.23;;;5.18;;
36725;SDS011;44936;52.086;5.150;2023-02-15T01:59:55;17.70;;;5.43;;
36725;SDS011;44936;52.086;5.150;2023-02-15T02:02:23;19.77;;;5.93;;
36725;SDS011;44936;52.086;5.150;2023-02-15T02:07:22;13.23;;;5.10;;
36725;SDS011;44936;52.086;5.150;2023-02-15T02:09:51;17.25;;;5.38;;
36725;SDS011;44936;52.086;5.150;2023-02-15T02:12:17;17.77;;;5.57;;
36725;SDS011;44936;52.086;5.150;2023-02-15T02:14:44;14.73;;;5.97;;
36725;SDS011;44936;52.086;5.150;2023-02-15T02:39:06;16.70;;;5.13;;
36725;SDS011;44936;52.086;5.150;2023-02-15T02:41:50;15.90;;;5.60;;
36725;SDS011;44936;52.086;5.150;2023-02-15T02:44:43;14.70;;;4.20;;
36725;SDS011;44936;52.086;5.150;2023-02-15T02:47:17;13.20;;;5.22;;
36725;SDS011;44936;52.086;5.150;2023-02-15T02:49:51;16.70;;;6.13;;
36725;SDS011;44936;52.086;5.150;2023-02-15T02:58:00;14.23;;;5.10;;
36725;SDS011;44936;52.086;5.150;2023-02-15T03:00:31;15.18;;;5.18;;
36725;SDS011;44936;52.086;5.150;2023-02-15T03:03:02;18.17;;;5.47;;
36725;SDS011;44936;52.086;5.150;2023-02-15T03:06:00;17.35;;;5.65;;
36725;SDS011;44936;52.086;5.150;2023-02-15T03:08:33;14.48;;;4.95;;
36725;SDS011;44936;52.086;5.150;2023-02-15T03:11:07;15.13;;;5.30;;
36725;SDS011;44936;52.086;5.150;2023-02-15T03:13:33;10.98;;;4.60;;
36725;SDS011;44936;52.086;5.150;2023-02-15T03:16:00;15.80;;;4.78;;
36725;SDS011;44936;52.086;5.150;2023-02-15T03:18:49;20.98;;;5.22;;
36725;SDS011;44936;52.086;5.150;2023-02-15T03:21:33;15.25;;;4.85;;
36725;SDS011;44936;52.086;5.150;2023-02-15T03:24:04;16.80;;;5.93;;
36725;SDS011;44936;52.086;5.150;2023-02-15T03:26:35;19.25;;;5.40;;
36725;SDS011;44936;52.086;5.150;2023-02-15T03:29:01;13.27;;;5.05;;
36725;SDS011;44936;52.086;5.150;2023-02-15T03:31:31;13.07;;;4.35;;
36725;SDS011;44936;52.086;5.150;2023-02-15T03:34:02;17.85;;;5.82;;
36725;SDS011;44936;52.086;5.150;2023-02-15T03:36:34;18.45;;;5.30;;
36725;SDS011;44936;52.086;5.150;2023-02-15T03:39:13;12.98;;;4.97;;
36725;SDS011;44936;52.086;5.150;2023-02-15T03:41:41;22.10;;;5.63;;
36725;SDS011;44936;52.086;5.150;2023-02-15T03:44:23;18.35;;;5.50;;
36725;SDS011;44936;52.086;5.150;2023-02-15T03:47:04;14.48;;;4.85;;
36725;SDS011;44936;52.086;5.150;2023-02-15T03:49:40;16.20;;;4.97;;
36725;SDS011;44936;52.086;5.150;2023-02-15T03:52:10;16.67;;;4.80;;
36725;SDS011;44936;52.086;5.150;2023-02-15T03:54:39;14.15;;;4.88;;
36725;SDS011;44936;52.086;5.150;2023-02-15T04:00:05;19.30;;;5.32;;
36725;SDS011;44936;52.086;5.150;2023-02-15T04:05:54;18.08;;;4.88;;
36725;SDS011;44936;52.086;5.150;2023-02-15T04:08:19;18.48;;;5.47;;
36725;SDS011;44936;52.086;5.150;2023-02-15T04:10:45;15.70;;;4.88;;
36725;SDS011;44936;52.086;5.150;2023-02-15T04:13:23;15.50;;;5.25;;
36725;SDS011;44936;52.086;5.150;2023-02-15T04:15:55;12.98;;;4.40;;
36725;SDS011;44936;52.086;5.150;2023-02-15T04:18:33;17.35;;;5.80;;
36725;SDS011;44936;52.086;5.150;2023-02-15T04:21:19;17.23;;;6.70;;
36725;SDS011;44936;52.086;5.150;2023-02-15T04:24:04;16.80;;;5.13;;
36725;SDS011;44936;52.086;5.150;2023-02-15T04:26:48;16.98;;;4.90;;
36725;SDS011;44936;52.086;5.150;2023-02-15T04:29:17;16.00;;;4.88;;
36725;SDS011;44936;52.086;5.150;2023-02-15T04:31:43;13.25;;;5.13;;
36725;SDS011;44936;52.086;5.150;2023-02-15T04:34:09;14.85;;;5.13;;
36725;SDS011;44936;52.086;5.150;2023-02-15T04:36:35;14.02;;;5.93;;
36725;SDS011;44936;52.086;5.150;2023-02-15T04:39:01;21.50;;;5.70;;
36725;SDS011;44936;52.086;5.150;2023-02-15T04:41:26;20.85;;;4.97;;
36725;SDS011;44936;52.086;5.150;2023-02-15T04:43:52;18.73;;;5.32;;
36725;SDS011;44936;52.086;5.150;2023-02-15T04:46:17;17.55;;;4.90;;
36725;SDS011;44936;52.086;5.150;2023-02-15T04:48:42;22.38;;;6.25;;
36725;SDS011;44936;52.086;5.150;2023-02-15T04:51:08;20.42;;;5.78;;
36725;SDS011;44936;52.086;5.150;2023-02-15T04:53:34;20.13;;;6.00;;
36725;SDS011;44936;52.086;5.150;2023-02-15T04:56:00;17.33;;;5.80;;
36725;SDS011;44936;52.086;5.150;2023-02-15T04:58:25;15.77;;;5.70;;
36725;SDS011;44936;52.086;5.150;2023-02-15T05:00:51;21.10;;;6.93;;
36725;SDS011;44936;52.086;5.150;2023-02-15T05:03:20;14.82;;;5.53;;
36725;SDS011;44936;52.086;5.150;2023-02-15T05:05:45;17.58;;;5.72;;
36725;SDS011;44936;52.086;5.150;2023-02-15T05:08:10;18.92;;;6.00;;
36725;SDS011;44936;52.086;5.150;2023-02-15T05:10:36;17.60;;;5.70;;
36725;SDS011;44936;52.086;5.150;2023-02-15T05:13:01;23.05;;;6.40;;
36725;SDS011;44936;52.086;5.150;2023-02-15T05:15:26;15.10;;;5.78;;
36725;SDS011;44936;52.086;5.150;2023-02-15T05:17:51;20.00;;;5.35;;
36725;SDS011;44936;52.086;5.150;2023-02-15T05:20:17;13.02;;;4.72;;
36725;SDS011;44936;52.086;5.150;2023-02-15T05:22:43;14.38;;;4.50;;
36725;SDS011;44936;52.086;5.150;2023-02-15T05:25:09;15.00;;;5.40;;
36725;SDS011;44936;52.086;5.150;2023-02-15T05:27:53;17.27;;;5.65;;
36725;SDS011;44936;52.086;5.150;2023-02-15T05:30:37;19.10;;;5.43;;
36725;SDS011;44936;52.086;5.150;2023-02-15T05:33:04;16.02;;;5.35;;
36725;SDS011;44936;52.086;5.150;2023-02-15T05:35:31;18.45;;;6.20;;
36725;SDS011;44936;52.086;5.150;2023-02-15T05:37:56;16.88;;;5.10;;
36725;SDS011;44936;52.086;5.150;2023-02-15T05:40:22;20.15;;;5.75;;
36725;SDS011;44936;52.086;5.150;2023-02-15T05:42:47;17.88;;;5.75;;
36725;SDS011;44936;52.086;5.150;2023-02-15T05:45:12;20.20;;;5.97;;
36725;SDS011;44936;52.086;5.150;2023-02-15T05:47:38;20.08;;;5.72;;
36725;SDS011;44936;52.086;5.150;2023-02-15T05:50:03;16.70;;;5.95;;
36725;SDS011;44936;52.086;5.150;2023-02-15T05:52:29;15.75;;;5.25;;
36725;SDS011;44936;52.086;5.150;2023-02-15T05:54:54;15.82;;;5.47;;
36725;SDS011;44936;52.086;5.150;2023-02-15T05:57:20;20.00;;;6.78;;
36725;SDS011;44936;52.086;5.150;2023-02-15T05:59:45;17.35;;;5.68;;
36725;SDS011;44936;52.086;5.150;2023-02-15T06:02:10;16.33;;;5.47;;
36725;SDS011;44936;52.086;5.150;2023-02-15T06:04:36;20.65;;;5.47;;
36725;SDS011;44936;52.086;5.150;2023-02-15T06:07:01;18.48;;;5.60;;
36725;SDS011;44936;52.086;5.150;2023-02-15T06:09:27;20.23;;;5.72;;
36725;SDS011;44936;52.086;5.150;2023-02-15T06:11:52;19.27;;;6.57;;
36725;SDS011;44936;52.086;5.150;2023-02-15T06:14:17;15.60;;;5.13;;
36725;SDS011;44936;52.086;5.150;2023-02-15T06:16:42;16.73;;;5.75;;
36725;SDS011;44936;52.086;5.150;2023-02-15T06:19:08;20.55;;;6.63;;
36725;SDS011;44936;52.086;5.150;2023-02-15T06:21:34;17.98;;;5.75;;
36725;SDS011;44936;52.086;5.150;2023-02-15T06:23:59;23.02;;;6.10;;
36725;SDS011;44936;52.086;5.150;2023-02-15T06:26:24;21.83;;;5.80;;
36725;SDS011;44936;52.086;5.150;2023-02-15T06:28:50;19.13;;;5.72;;
36725;SDS011;44936;52.086;5.150;2023-02-15T06:31:15;18.95;;;5.13;;
36725;SDS011;44936;52.086;5.150;2023-02-15T06:33:41;20.48;;;5.80;;
36725;SDS011;44936;52.086;5.150;2023-02-15T06:36:06;17.50;;;5.57;;
36725;SDS011;44936;52.086;5.150;2023-02-15T06:38:32;14.82;;;6.32;;
36725;SDS011;44936;52.086;5.150;2023-02-15T06:40:57;19.42;;;5.80;;
36725;SDS011;44936;52.086;5.150;2023-02-15T06:43:22;20.13;;;6.07;;
36725;SDS011;44936;52.086;5.150;2023-02-15T06:45:48;16.77;;;5.45;;
36725;SDS011;44936;52.086;5.150;2023-02-15T06:48:13;16.58;;;5.28;;
36725;SDS011;44936;52.086;5.150;2023-02-15T06:50:39;17.95;;;5.70;;
36725;SDS011;44936;52.086;5.150;2023-02-15T06:53:04;16.65;;;6.13;;
36725;SDS011;44936;52.086;5.150;2023-02-15T06:55:30;16.30;;;5.50;;
36725;SDS011;44936;52.086;5.150;2023-02-15T06:57:55;16.83;;;5.07;;
36725;SDS011;44936;52.086;5.150;2023-02-15T07:00:20;21.23;;;6.28;;
36725;SDS011;44936;52.086;5.150;2023-02-15T07:02:47;17.25;;;6.20;;
36725;SDS011;44936;52.086;5.150;2023-02-15T07:05:14;18.38;;;5.85;;
36725;SDS011;44936;52.086;5.150;2023-02-15T07:07:40;16.55;;;6.22;;
36725;SDS011;44936;52.086;5.150;2023-02-15T07:10:05;16.45;;;5.15;;
36725;SDS011;44936;52.086;5.150;2023-02-15T07:12:31;19.65;;;5.20;;
36725;SDS011;44936;52.086;5.150;2023-02-15T07:15:17;18.23;;;5.22;;
36725;SDS011;44936;52.086;5.150;2023-02-15T07:17:45;18.85;;;5.80;;
36725;SDS011;44936;52.086;5.150;2023-02-15T07:20:16;18.80;;;5.75;;
36725;SDS011;44936;52.086;5.150;2023-02-15T07:22:43;15.77;;;5.13;;
36725;SDS011;44936;52.086;5.150;2023-02-15T07:25:09;22.75;;;6.32;;
36725;SDS011;44936;52.086;5.150;2023-02-15T07:27:35;19.13;;;5.75;;
36725;SDS011;44936;52.086;5.150;2023-02-15T07:30:00;22.02;;;5.15;;
36725;SDS011;44936;52.086;5.150;2023-02-15T07:32:30;20.88;;;6.20;;
36725;SDS011;44936;52.086;5.150;2023-02-15T07:34:56;17.17;;;6.07;;
36725;SDS011;44936;52.086;5.150;2023-02-15T07:37:21;18.38;;;5.90;;
36725;SDS011;44936;52.086;5.150;2023-02-15T07:39:47;14.25;;;4.57;;
36725;SDS011;44936;52.086;5.150;2023-02-15T07:42:12;18.50;;;5.75;;
36725;SDS011;44936;52.086;5.150;2023-02-15T07:44:38;15.82;;;5.07;;
36725;SDS011;44936;52.086;5.150;2023-02-15T07:47:03;21.02;;;5.80;;
36725;SDS011;44936;52.086;5.150;2023-02-15T07:49:28;23.42;;;5.50;;
36725;SDS011;44936;52.086;5.150;2023-02-15T07:51:53;16.45;;;6.10;;
36725;SDS011;44936;52.086;5.150;2023-02-15T07:54:19;14.63;;;4.93;;
36725;SDS011;44936;52.086;5.150;2023-02-15T07:56:44;17.25;;;5.22;;
36725;SDS011;44936;52.086;5.150;2023-02-15T07:59:10;17.70;;;5.85;;
36725;SDS011;44936;52.086;5.150;2023-02-15T08:01:36;18.98;;;6.18;;
36725;SDS011;44936;52.086;5.150;2023-02-15T08:04:03;18.35;;;6.00;;
36725;SDS011;44936;52.086;5.150;2023-02-15T08:06:31;18.60;;;6.10;;
36725;SDS011;44936;52.086;5.150;2023-02-15T08:08:58;21.17;;;5.80;;
36725;SDS011;44936;52.086;5.150;2023-02-15T08:11:25;22.58;;;5.93;;
36725;SDS011;44936;52.086;5.150;2023-02-15T08:13:59;17.67;;;6.00;;
36725;SDS011;44936;52.086;5.150;2023-02-15T08:16:36;15.13;;;5.20;;
36725;SDS011;44936;52.086;5.150;2023-02-15T08:19:03;20.38;;;5.95;;
36725;SDS011;44936;52.086;5.150;2023-02-15T08:21:50;18.33;;;5.68;;
36725;SDS011;44936;52.086;5.150;2023-02-15T08:24:19;19.10;;;6.40;;
36725;SDS011;44936;52.086;5.150;2023-02-15T08:26:45;18.40;;;7.47;;
36725;SDS011;44936;52.086;5.150;2023-02-15T08:29:13;19.30;;;6.13;;
36725;SDS011;44936;52.086;5.150;2023-02-15T08:31:39;19.58;;;6.22;;
36725;SDS011;44936;52.086;5.150;2023-02-15T08:34:06;22.15;;;5.85;;
36725;SDS011;44936;52.086;5.150;2023-02-15T08:36:36;19.70;;;6.93;;
36725;SDS011;44936;52.086;5.150;2023-02-15T08:39:03;22.58;;;6.70;;
36725;SDS011;44936;52.086;5.150;2023-02-15T08:41:30;19.65;;;6.88;;
36725;SDS011;44936;52.086;5.150;2023-02-15T08:43:58;24.15;;;6.53;;
36725;SDS011;44936;52.086;5.150;2023-02-15T08:46:26;18.83;;;6.05;;
36725;SDS011;44936;52.086;5.150;2023-02-15T08:48:57;19.40;;;6.75;;
36725;SDS011;44936;52.086;5.150;2023-02-15T08:51:24;20.80;;;6.93;;
36725;SDS011;44936;52.086;5.150;2023-02-15T08:53:57;22.80;;;6.82;;
36725;SDS011;44936;52.086;5.150;2023-02-15T08:56:25;20.85;;;7.15;;
36725;SDS011;44936;52.086;5.150;2023-02-15T08:58:53;20.38;;;6.93;;
36725;SDS011;44936;52.086;5.150;2023-02-15T09:01:20;21.65;;;6.75;;
36725;SDS011;44936;52.086;5.150;2023-02-15T09:03:48;27.80;;;7.45;;
36725;SDS011;44936;52.086;5.150;2023-02-15T09:06:19;26.60;;;7.10;;
36725;SDS011;44936;52.086;5.150;2023-02-15T09:08:46;21.55;;;6.93;;
36725;SDS011;44936;52.086;5.150;2023-02-15T09:11:16;23.98;;;8.23;;
36725;SDS011;44936;52.086;5.150;2023-02-15T09:13:47;23.50;;;7.07;;
36725;SDS011;44936;52.086;5.150;2023-02-15T09:16:14;23.08;;;7.60;;
36725;SDS011;44936;52.086;5.150;2023-02-15T09:18:41;19.20;;;6.90;;
36725;SDS011;44936;52.086;5.150;2023-02-15T09:21:08;25.33;;;7.57;;
36725;SDS011;44936;52.086;5.150;2023-02-15T09:23:35;23.13;;;7.90;;
36725;SDS011;44936;52.086;5.150;2023-02-15T09:26:03;25.67;;;8.07;;
36725;SDS011;44936;52.086;5.150;2023-02-15T09:28:32;25.50;;;7.82;;
36725;SDS011;44936;52.086;5.150;2023-02-15T09:31:04;22.83;;;7.78;;
36725;SDS011;44936;52.086;5.150;2023-02-15T09:33:40;20.65;;;7.00;;
36725;SDS011;44936;52.086;5.150;2023-02-15T09:36:13;22.73;;;7.65;;
36725;SDS011;44936;52.086;5.150;2023-02-15T09:44:38;25.45;;;7.13;;
36725;SDS011;44936;52.086;5.150;2023-02-15T09:48:03;25.52;;;8.55;;
36725;SDS011;44936;52.086;5.150;2023-02-15T10:01:09;26.38;;;7.85;;
36725;SDS011;44936;52.086;5.150;2023-02-15T10:03:59;27.17;;;8.13;;
36725;SDS011;44936;52.086;5.150;2023-02-15T10:12:16;27.30;;;8.20;;
36725;SDS011;44936;52.086;5.150;2023-02-15T10:20:47;26.87;;;8.53;;
36725;SDS011;44936;52.086;5.150;2023-02-15T10:26:27;26.23;;;7.33;;
36725;SDS011;44936;52.086;5.150;2023-02-15T10:31:26;31.42;;;9.38;;
36725;SDS011;44936;52.086;5.150;2023-02-15T10:42:16;25.38;;;9.10;;
36725;SDS011;44936;52.086;5.150;2023-02-15T10:47:43;29.65;;;9.65;;
36725;SDS011;44936;52.086;5.150;2023-02-15T10:55:40;26.00;;;8.63;;
36725;SDS011;44936;52.086;5.150;2023-02-15T11:06:22;31.85;;;9.52;;
36725;SDS011;44936;52.086;5.150;2023-02-15T11:08:52;31.58;;;9.45;;
36725;SDS011;44936;52.086;5.150;2023-02-15T11:11:27;35.58;;;10.75;;
36725;SDS011;44936;52.086;5.150;2023-02-15T11:13:59;31.98;;;9.98;;
36725;SDS011;44936;52.086;5.150;2023-02-15T11:16:36;32.88;;;10.93;;
36725;SDS011;44936;52.086;5.150;2023-02-15T11:19:11;34.65;;;10.00;;
36725;SDS011;44936;52.086;5.150;2023-02-15T11:21:53;36.53;;;10.57;;
36725;SDS011;44936;52.086;5.150;2023-02-15T11:24:25;35.50;;;10.05;;
36725;SDS011;44936;52.086;5.150;2023-02-15T11:27:00;37.00;;;10.93;;
36725;SDS011;44936;52.086;5.150;2023-02-15T11:32:17;35.55;;;9.95;;
36725;SDS011;44936;52.086;5.150;2023-02-15T11:34:54;32.22;;;9.70;;
36725;SDS011;44936;52.086;5.150;2023-02-15T11:37:31;36.88;;;10.98;;
36725;SDS011;44936;52.086;5.150;2023-02-15T11:40:26;35.15;;;10.75;;
36725;SDS011;44936;52.086;5.150;2023-02-15T11:42:58;37.15;;;10.85;;
36725;SDS011;44936;52.086;5.150;2023-02-15T11:45:30;38.20;;;10.80;;
36725;SDS011;44936;52.086;5.150;2023-02-15T11:47:57;34.42;;;11.45;;
36725;SDS011;44936;52.086;5.150;2023-02-15T11:50:26;35.10;;;10.38;;
36725;SDS011;44936;52.086;5.150;2023-02-15T11:52:58;43.65;;;11.90;;
36725;SDS011;44936;52.086;5.150;2023-02-15T11:55:26;36.93;;;10.53;;
36725;SDS011;44936;52.086;5.150;2023-02-15T11:58:01;36.50;;;10.65;;
36725;SDS011;44936;52.086;5.150;2023-02-15T12:00:46;35.28;;;9.95;;
36725;SDS011;44936;52.086;5.150;2023-02-15T12:06:03;34.78;;;10.85;;
36725;SDS011;44936;52.086;5.150;2023-02-15T12:08:37;31.25;;;11.48;;
36725;SDS011;44936;52.086;5.150;2023-02-15T12:11:08;36.42;;;10.70;;
36725;SDS011;44936;52.086;5.150;2023-02-15T12:13:37;30.70;;;10.45;;
36725;SDS011;44936;52.086;5.150;2023-02-15T12:16:19;36.87;;;11.03;;
36725;SDS011;44936;52.086;5.150;2023-02-15T12:18:45;36.78;;;12.10;;
36725;SDS011;44936;52.086;5.150;2023-02-15T12:21:13;36.70;;;11.50;;
36725;SDS011;44936;52.086;5.150;2023-02-15T12:23:48;30.23;;;11.65;;
36725;SDS011;44936;52.086;5.150;2023-02-15T12:26:53;41.33;;;10.93;;
36725;SDS011;44936;52.086;5.150;2023-02-15T12:29:17;33.10;;;11.38;;
36725;SDS011;44936;52.086;5.150;2023-02-15T12:31:50;32.97;;;10.33;;
36725;SDS011;44936;52.086;5.150;2023-02-15T12:36:56;35.75;;;10.90;;
36725;SDS011;44936;52.086;5.150;2023-02-15T12:39:26;40.38;;;11.10;;
36725;SDS011;44936;52.086;5.150;2023-02-15T12:44:20;35.07;;;10.77;;
36725;SDS011;44936;52.086;5.150;2023-02-15T12:46:55;33.25;;;9.77;;
36725;SDS011;44936;52.086;5.150;2023-02-15T12:49:21;34.92;;;9.77;;
36725;SDS011;44936;52.086;5.150;2023-02-15T12:51:50;35.65;;;9.70;;
36725;SDS011;44936;52.086;5.150;2023-02-15T12:56:49;30.98;;;9.88;;
36725;SDS011;44936;52.086;5.150;2023-02-15T12:59:15;34.67;;;9.55;;
36725;SDS011;44936;52.086;5.150;2023-02-15T13:01:40;31.15;;;10.02;;
36725;SDS011;44936;52.086;5.150;2023-02-15T13:04:14;32.50;;;10.68;;
36725;SDS011;44936;52.086;5.150;2023-02-15T13:06:52;31.60;;;10.77;;
36725;SDS011;44936;52.086;5.150;2023-02-15T13:09:41;30.85;;;10.40;;
36725;SDS011;44936;52.086;5.150;2023-02-15T13:12:23;29.98;;;10.60;;
36725;SDS011;44936;52.086;5.150;2023-02-15T13:14:51;26.75;;;9.55;;
36725;SDS011;44936;52.086;5.150;2023-02-15T13:17:26;39.03;;;11.48;;
36725;SDS011;44936;52.086;5.150;2023-02-15T13:19:57;29.45;;;9.57;;
36725;SDS011;44936;52.086;5.150;2023-02-15T13:22:48;29.80;;;9.70;;
36725;SDS011;44936;52.086;5.150;2023-02-15T13:25:24;36.15;;;10.65;;
36725;SDS011;44936;52.086;5.150;2023-02-15T13:27:53;38.15;;;10.40;;
36725;SDS011;44936;52.086;5.150;2023-02-15T13:30:27;34.42;;;10.70;;
36725;SDS011;44936;52.086;5.150;2023-02-15T13:33:04;37.67;;;10.10;;
36725;SDS011;44936;52.086;5.150;2023-02-15T13:35:38;32.20;;;10.32;;
36725;SDS011;44936;52.086;5.150;2023-02-15T13:38:18;27.35;;;8.75;;
36725;SDS011;44936;52.086;5.150;2023-02-15T13:40:48;35.20;;;11.57;;
36725;SDS011;44936;52.086;5.150;2023-02-15T13:46:02;36.90;;;11.02;;
36725;SDS011;44936;52.086;5.150;2023-02-15T13:49:09;38.78;;;10.80;;
36725;SDS011;44936;52.086;5.150;2023-02-15T13:57:31;29.70;;;9.40;;
36725;SDS011;44936;52.086;5.150;2023-02-15T14:00:22;36.90;;;10.27;;
36725;SDS011;44936;52.086;5.150;2023-02-15T14:11:39;34.67;;;9.73;;
36725;SDS011;44936;52.086;5.150;2023-02-15T14:14:11;31.10;;;9.77;;
36725;SDS011;44936;52.086;5.150;2023-02-15T14:19:27;32.40;;;9.48;;
36725;SDS011;44936;52.086;5.150;2023-02-15T14:22:01;29.10;;;9.10;;
36725;SDS011;44936;52.086;5.150;2023-02-15T14:24:36;27.00;;;9.13;;
36725;SDS011;44936;52.086;5.150;2023-02-15T14:30:21;28.75;;;9.50;;
36725;SDS011;44936;52.086;5.150;2023-02-15T14:35:26;26.75;;;8.15;;
36725;SDS011;44936;52.086;5.150;2023-02-15T14:43:34;33.10;;;9.43;;
36725;SDS011;44936;52.086;5.150;2023-02-15T14:46:19;32.58;;;9.73;;
36725;SDS011;44936;52.086;5.150;2023-02-15T14:48:56;29.80;;;10.23;;
36725;SDS011;44936;52.086;5.150;2023-02-15T14:56:42;29.40;;;9.23;;
36725;SDS011;44936;52.086;5.150;2023-02-15T15:01:51;27.58;;;8.52;;
36725;SDS011;44936;52.086;5.150;2023-02-15T15:07:09;31.25;;;9.52;;
36725;SDS011;44936;52.086;5.150;2023-02-15T15:09:46;28.17;;;10.05;;
36725;SDS011;44936;52.086;5.150;2023-02-15T15:14:54;28.35;;;9.82;;
36725;SDS011;44936;52.086;5.150;2023-02-15T15:22:50;30.52;;;8.93;;
36725;SDS011;44936;52.086;5.150;2023-02-15T15:26:41;31.38;;;10.15;;
36725;SDS011;44936;52.086;5.150;2023-02-15T15:45:23;29.73;;;10.00;;
36725;SDS011;44936;52.086;5.150;2023-02-15T15:50:53;32.33;;;10.43;;
36725;SDS011;44936;52.086;5.150;2023-02-15T15:53:23;36.67;;;11.70;;
36725;SDS011;44936;52.086;5.150;2023-02-15T15:55:52;27.23;;;9.75;;
36725;SDS011;44936;52.086;5.150;2023-02-15T15:58:23;32.88;;;10.75;;
36725;SDS011;44936;52.086;5.150;2023-02-15T16:00:51;29.48;;;9.70;;
36725;SDS011;44936;52.086;5.150;2023-02-15T16:03:22;27.35;;;9.23;;
36725;SDS011;44936;52.086;5.150;2023-02-15T16:05:52;29.52;;;9.77;;
36725;SDS011;44936;52.086;5.150;2023-02-15T16:08:27;34.63;;;9.90;;
36725;SDS011;44936;52.086;5.150;2023-02-15T16:10:58;34.13;;;10.45;;
36725;SDS011;44936;52.086;5.150;2023-02-15T16:13:25;32.40;;;10.70;;
36725;SDS011;44936;52.086;5.150;2023-02-15T16:15:52;28.85;;;9.82;;
36725;SDS011;44936;52.086;5.150;2023-02-15T16:18:23;35.97;;;10.48;;
36725;SDS011;44936;52.086;5.150;2023-02-15T16:20:55;31.48;;;10.60;;
36725;SDS011;44936;52.086;5.150;2023-02-15T16:28:26;30.93;;;10.37;;
36725;SDS011;44936;52.086;5.150;2023-02-15T16:31:12;27.33;;;9.05;;
36725;SDS011;44936;52.086;5.150;2023-02-15T16:33:40;29.08;;;10.57;;
36725;SDS011;44936;52.086;5.150;2023-02-15T16:36:10;29.05;;;8.93;;
36725;SDS011;44936;52.086;5.150;2023-02-15T16:41:20;31.98;;;10.35;;
36725;SDS011;44936;52.086;5.150;2023-02-15T16:43:47;31.75;;;9.18;;
36725;SDS011;44936;52.086;5.150;2023-02-15T16:46:15;30.33;;;8.98;;
36725;SDS011;44936;52.086;5.150;2023-02-15T16:48:45;29.15;;;9.15;;
36725;SDS011;44936;52.086;5.150;2023-02-15T16:51:18;35.80;;;10.10;;
36725;SDS011;44936;52.086;5.150;2023-02-15T16:53:51;28.67;;;9.18;;
36725;SDS011;44936;52.086;5.150;2023-02-15T16:56:18;26.92;;;8.30;;
36725;SDS011;44936;52.086;5.150;2023-02-15T16:58:49;25.00;;;9.43;;
36725;SDS011;44936;52.086;5.150;2023-02-15T17:01:17;27.45;;;9.15;;
36725;SDS011;44936;52.086;5.150;2023-02-15T17:03:48;28.45;;;9.38;;
36725;SDS011;44936;52.086;5.150;2023-02-15T17:06:22;29.35;;;9.70;;
36725;SDS011;44936;52.086;5.150;2023-02-15T17:08:51;34.55;;;9.82;;
36725;SDS011;44936;52.086;5.150;2023-02-15T17:11:34;29.50;;;8.90;;
36725;SDS011;44936;52.086;5.150;2023-02-15T17:16:28;31.08;;;9.77;;
36725;SDS011;44936;52.086;5.150;2023-02-15T17:19:23;29.42;;;9.50;;
36725;SDS011;44936;52.086;5.150;2023-02-15T17:21:54;29.38;;;9.10;;
36725;SDS011;44936;52.086;5.150;2023-02-15T17:27:00;26.73;;;9.23;;
36725;SDS011;44936;52.086;5.150;2023-02-15T17:32:18;30.20;;;9.23;;
36725;SDS011;44936;52.086;5.150;2023-02-15T17:34:47;26.02;;;8.63;;
36725;SDS011;44936;52.086;5.150;2023-02-15T17:39:50;29.95;;;9.32;;
36725;SDS011;44936;52.086;5.150;2023-02-15T17:42:15;29.70;;;9.00;;
36725;SDS011;44936;52.086;5.150;2023-02-15T17:44:40;28.92;;;9.40;;
36725;SDS011;44936;52.086;5.150;2023-02-15T17:47:06;27.48;;;9.13;;
36725;SDS011;44936;52.086;5.150;2023-02-15T17:49:31;31.17;;;9.63;;
36725;SDS011;44936;52.086;5.150;2023-02-15T17:52:02;32.33;;;9.80;;
36725;SDS011;44936;52.086;5.150;2023-02-15T17:54:28;31.88;;;10.27;;
36725;SDS011;44936;52.086;5.150;2023-02-15T17:57:13;29.05;;;10.55;;
36725;SDS011;44936;52.086;5.150;2023-02-15T17:59:39;28.70;;;9.35;;
36725;SDS011;44936;52.086;5.150;2023-02-15T18:02:24;27.67;;;8.70;;
36725;SDS011;44936;52.086;5.150;2023-02-15T18:05:12;25.45;;;8.85;;
36725;SDS011;44936;52.086;5.150;2023-02-15T18:07:57;23.55;;;8.55;;
36725;SDS011;44936;52.086;5.150;2023-02-15T18:10:41;30.63;;;9.00;;
36725;SDS011;44936;52.086;5.150;2023-02-15T18:13:25;28.40;;;9.32;;